sensor_id;sensor_type;location;lat;lon;timestamp;pressure;altitude;pressure_sealevel;temperature;humidity
13241;BME280;6687;47.790;7.322;2023-01-30T06:11:26;99805.88;;;2.76;77.03
13241;BME280;6687;47.790;7.322;2023-01-30T06:13:53;99818.91;;;2.81;76.01
13241;BME280;6687;47.790;7.322;2023-01-30T06:16:20;99842.16;;;2.50;76.26
13241;BME280;6687;47.790;7.322;2023-01-30T06:18:47;99857.13;;;2.42;77.10
13241;BME280;6687;47.790;7.322;2023-01-30T06:21:14;99858.06;;;2.26;76.47
13241;BME280;6687;47.790;7.322;2023-01-30T06:23:41;99869.97;;;2.26;76.23
13241;BME280;6687;47.790;7.322;2023-01-30T06:26:08;99875.50;;;2.51;76.97
13241;BME280;6687;47.790;7.322;2023-01-30T06:28:37;99868.78;;;2.53;76.85
13241;BME280;6687;47.790;7.322;2023-01-30T06:31:05;99871.41;;;2.73;76.13
13241;BME280;6687;47.790;7.322;2023-01-30T06:33:32;99869.28;;;2.64;75.06
13241;BME280;6687;47.790;7.322;2023-01-30T06:35:59;99889.97;;;2.51;75.46
13241;BME280;6687;47.790;7.322;2023-01-30T06:38:25;99894.34;;;2.53;76.53
13241;BME280;6687;47.790;7.322;2023-01-30T06:40:52;99899.22;;;2.31;76.35
13241;BME280;6687;47.790;7.322;2023-01-30T06:43:19;99895.88;;;2.15;76.48
13241;BME280;6687;47.790;7.322;2023-01-30T06:45:47;99893.47;;;2.35;76.99
13241;BME280;6687;47.790;7.322;2023-01-30T06:48:14;99888.00;;;2.63;76.08
13241;BME280;6687;47.790;7.322;2023-01-30T06:50:40;99891.16;;;2.93;74.32
13241;BME280;6687;47.790;7.322;2023-01-30T06:53:07;99894.81;;;2.63;74.24
13241;BME280;6687;47.790;7.322;2023-01-30T06:55:35;99905.84;;;2.62;75.30
13241;BME280;6687;47.790;7.322;2023-01-30T06:58:04;99904.31;;;2.83;74.24
13241;BME280;6687;47.790;7.322;2023-01-30T07:00:31;99902.13;;;2.38;74.18
13241;BME280;6687;47.790;7.322;2023-01-30T07:03:00;99900.66;;;2.26;74.10
13241;BME280;6687;47.790;7.322;2023-01-30T07:05:27;99900.88;;;2.65;75.13
13241;BME280;6687;47.790;7.322;2023-01-30T07:07:54;99902.50;;;2.46;74.26
13241;BME280;6687;47.790;7.322;2023-01-30T07:10:21;99886.91;;;2.76;74.84
13241;BME280;6687;47.790;7.322;2023-01-30T07:12:50;99872.28;;;2.55;73.67
13241;BME280;6687;47.790;7.322;2023-01-30T07:15:17;99883.53;;;2.25;74.17
13241;BME280;6687;47.790;7.322;2023-01-30T07:17:44;99879.59;;;2.84;74.42
13241;BME280;6687;47.790;7.322;2023-01-30T07:20:12;99870.22;;;2.48;74.70
13241;BME280;6687;47.790;7.322;2023-01-30T07:22:39;99864.38;;;2.33;75.23
13241;BME280;6687;47.790;7.322;2023-01-30T07:25:06;99863.63;;;2.35;74.25
13241;BME280;6687;47.790;7.322;2023-01-30T07:27:33;99861.69;;;2.13;74.45
13241;BME280;6687;47.790;7.322;2023-01-30T07:30:00;99857.50;;;2.50;74.92
13241;BME280;6687;47.790;7.322;2023-01-30T07:32:27;99868.97;;;2.06;74.85
13241;BME280;6687;47.790;7.322;2023-01-30T07:34:53;99865.69;;;2.43;74.90
13241;BME280;6687;47.790;7.322;2023-01-30T07:37:22;99878.78;;;2.14;73.90
13241;BME280;6687;47.790;7.322;2023-01-30T07:39:48;99882.88;;;2.45;74.15
13241;BME280;6687;47.790;7.322;2023-01-30T07:42:15;99883.53;;;2.41;75.32
13241;BME280;6687;47.790;7.322;2023-01-30T07:44:42;99875.91;;;2.43;72.94
13241;BME280;6687;47.790;7.322;2023-01-30T07:47:09;99880.09;;;2.58;73.82
13241;BME280;6687;47.790;7.322;2023-01-30T07:49:35;99869.34;;;2.66;73.54
13241;BME280;6687;47.790;7.322;2023-01-30T07:52:02;99874.03;;;2.56;73.53
13241;BME280;6687;47.790;7.322;2023-01-30T07:54:30;99869.94;;;2.60;73.11
13241;BME280;6687;47.790;7.322;2023-01-30T07:56:57;99877.78;;;2.81;72.72
13241;BME280;6687;47.790;7.322;2023-01-30T07:59:24;99872.00;;;2.49;73.24
13241;BME280;6687;47.790;7.322;2023-01-30T08:01:51;99867.72;;;2.32;73.25
13241;BME280;6687;47.790;7.322;2023-01-30T08:04:18;99881.28;;;1.96;74.81
13241;BME280;6687;47.790;7.322;2023-01-30T08:06:45;99888.19;;;2.32;75.43
13241;BME280;6687;47.790;7.322;2023-01-30T08:09:12;99906.63;;;1.92;74.33
13241;BME280;6687;47.790;7.322;2023-01-30T08:11:40;99905.41;;;2.02;74.87
13241;BME280;6687;47.790;7.322;2023-01-30T08:14:07;99907.19;;;2.37;73.97
13241;BME280;6687;47.790;7.322;2023-01-30T08:16:33;99903.72;;;2.71;72.17
13241;BME280;6687;47.790;7.322;2023-01-30T08:19:03;99914.25;;;3.13;71.77
13241;BME280;6687;47.790;7.322;2023-01-30T08:21:29;99908.56;;;2.65;71.80
13241;BME280;6687;47.790;7.322;2023-01-30T08:23:56;99900.91;;;2.48;72.60
13241;BME280;6687;47.790;7.322;2023-01-30T08:26:23;99908.44;;;2.45;73.23
13241;BME280;6687;47.790;7.322;2023-01-30T08:28:51;99903.63;;;2.17;74.58
13241;BME280;6687;47.790;7.322;2023-01-30T08:31:20;99910.75;;;1.90;73.61
13241;BME280;6687;47.790;7.322;2023-01-30T08:33:47;99914.03;;;1.54;75.03
13241;BME280;6687;47.790;7.322;2023-01-30T08:36:13;99921.88;;;1.74;74.76
13241;BME280;6687;47.790;7.322;2023-01-30T08:38:40;99925.44;;;1.61;74.82
13241;BME280;6687;47.790;7.322;2023-01-30T08:41:07;99921.72;;;2.38;75.62
13241;BME280;6687;47.790;7.322;2023-01-30T08:43:34;99926.22;;;2.26;73.83
13241;BME280;6687;47.790;7.322;2023-01-30T08:46:03;99924.25;;;2.04;74.41
13241;BME280;6687;47.790;7.322;2023-01-30T08:48:29;99935.63;;;2.27;75.02
13241;BME280;6687;47.790;7.322;2023-01-30T08:50:57;99939.31;;;2.32;73.89
13241;BME280;6687;47.790;7.322;2023-01-30T08:53:23;99951.63;;;2.06;75.45
13241;BME280;6687;47.790;7.322;2023-01-30T08:55:51;99955.00;;;2.22;73.66
13241;BME280;6687;47.790;7.322;2023-01-30T08:58:18;99948.63;;;2.13;72.94
13241;BME280;6687;47.790;7.322;2023-01-30T09:00:45;99951.16;;;2.30;74.09
13241;BME280;6687;47.790;7.322;2023-01-30T09:03:14;99963.13;;;2.47;74.55
13241;BME280;6687;47.790;7.322;2023-01-30T09:05:41;99970.09;;;2.68;73.57
13241;BME280;6687;47.790;7.322;2023-01-30T09:08:08;99986.13;;;2.47;73.44
13241;BME280;6687;47.790;7.322;2023-01-30T09:10:35;99986.50;;;2.89;73.70
13241;BME280;6687;47.790;7.322;2023-01-30T09:13:02;99990.53;;;2.33;73.54
13241;BME280;6687;47.790;7.322;2023-01-30T09:15:30;100000.50;;;2.29;73.74
13241;BME280;6687;47.790;7.322;2023-01-30T09:17:56;99987.44;;;2.39;74.69
13241;BME280;6687;47.790;7.322;2023-01-30T09:20:25;99977.50;;;2.45;75.61
13241;BME280;6687;47.790;7.322;2023-01-30T09:22:51;99996.03;;;2.57;72.38
13241;BME280;6687;47.790;7.322;2023-01-30T09:25:18;100000.19;;;2.55;74.07
13241;BME280;6687;47.790;7.322;2023-01-30T09:27:47;99985.50;;;2.18;72.74
13241;BME280;6687;47.790;7.322;2023-01-30T09:30:15;99987.69;;;2.27;74.38
13241;BME280;6687;47.790;7.322;2023-01-30T09:32:42;99973.47;;;2.67;73.47
13241;BME280;6687;47.790;7.322;2023-01-30T09:35:09;99975.22;;;2.68;73.48
13241;BME280;6687;47.790;7.322;2023-01-30T09:37:37;99979.88;;;2.76;73.45
13241;BME280;6687;47.790;7.322;2023-01-30T09:40:05;99972.03;;;3.08;72.51
13241;BME280;6687;47.790;7.322;2023-01-30T09:42:52;99989.44;;;2.79;72.03
13241;BME280;6687;47.790;7.322;2023-01-30T09:45:40;99972.59;;;2.84;73.41
13241;BME280;6687;47.790;7.322;2023-01-30T09:48:14;99979.03;;;2.94;72.93
13241;BME280;6687;47.790;7.322;2023-01-30T09:51:12;99952.28;;;2.87;72.51
13241;BME280;6687;47.790;7.322;2023-01-30T09:53:57;99941.53;;;2.94;73.03
13241;BME280;6687;47.790;7.322;2023-01-30T09:56:25;99943.66;;;2.85;72.03
13241;BME280;6687;47.790;7.322;2023-01-30T09:58:54;99945.09;;;2.80;73.06
13241;BME280;6687;47.790;7.322;2023-01-30T10:01:26;99943.50;;;3.00;73.13
13241;BME280;6687;47.790;7.322;2023-01-30T10:04:02;99951.91;;;3.33;71.50
13241;BME280;6687;47.790;7.322;2023-01-30T10:06:35;99942.50;;;3.14;71.37
13241;BME280;6687;47.790;7.322;2023-01-30T10:09:10;99957.13;;;2.99;72.87
13241;BME280;6687;47.790;7.322;2023-01-30T10:11:54;99960.28;;;2.59;73.16
13241;BME280;6687;47.790;7.322;2023-01-30T10:14:47;99965.94;;;2.70;74.33
13241;BME280;6687;47.790;7.322;2023-01-30T10:17:30;99984.84;;;2.55;73.00
13241;BME280;6687;47.790;7.322;2023-01-30T10:20:06;99969.91;;;2.81;73.79
13241;BME280;6687;47.790;7.322;2023-01-30T10:22:46;99964.03;;;2.84;72.60
13241;BME280;6687;47.790;7.322;2023-01-30T10:25:25;99954.88;;;2.53;73.35
13241;BME280;6687;47.790;7.322;2023-01-30T10:27:56;99947.25;;;2.54;73.29
13241;BME280;6687;47.790;7.322;2023-01-30T10:30:25;99951.22;;;2.31;73.72
13241;BME280;6687;47.790;7.322;2023-01-30T10:32:55;99951.22;;;2.66;73.61
13241;BME280;6687;47.790;7.322;2023-01-30T10:35:28;99938.19;;;2.27;73.38
13241;BME280;6687;47.790;7.322;2023-01-30T10:38:01;99932.91;;;2.40;72.19
13241;BME280;6687;47.790;7.322;2023-01-30T10:40:34;99947.22;;;2.36;74.48
13241;BME280;6687;47.790;7.322;2023-01-30T10:43:12;99923.91;;;2.65;73.38
13241;BME280;6687;47.790;7.322;2023-01-30T10:45:46;99914.72;;;2.52;73.17
13241;BME280;6687;47.790;7.322;2023-01-30T10:51:12;99918.78;;;2.65;73.60
13241;BME280;6687;47.790;7.322;2023-01-30T10:53:46;99912.19;;;2.88;74.15
13241;BME280;6687;47.790;7.322;2023-01-30T10:56:20;99924.34;;;2.74;73.51
13241;BME280;6687;47.790;7.322;2023-01-30T10:58:52;99918.03;;;2.49;73.51
13241;BME280;6687;47.790;7.322;2023-01-30T11:01:23;99908.25;;;2.94;74.05
13241;BME280;6687;47.790;7.322;2023-01-30T11:03:52;99898.63;;;2.71;74.15
13241;BME280;6687;47.790;7.322;2023-01-30T11:06:22;99888.50;;;2.56;74.62
13241;BME280;6687;47.790;7.322;2023-01-30T11:08:50;99876.22;;;3.03;74.58
13241;BME280;6687;47.790;7.322;2023-01-30T11:11:30;99872.47;;;3.14;74.38
13241;BME280;6687;47.790;7.322;2023-01-30T11:14:03;99859.81;;;3.17;73.92
13241;BME280;6687;47.790;7.322;2023-01-30T11:16:33;99844.22;;;2.93;74.46
13241;BME280;6687;47.790;7.322;2023-01-30T11:19:03;99840.69;;;3.09;74.20
13241;BME280;6687;47.790;7.322;2023-01-30T11:21:30;99838.66;;;3.21;75.21
13241;BME280;6687;47.790;7.322;2023-01-30T11:24:03;99844.56;;;3.20;74.86
13241;BME280;6687;47.790;7.322;2023-01-30T11:26:34;99847.72;;;2.77;76.44
13241;BME280;6687;47.790;7.322;2023-01-30T11:29:15;99827.22;;;3.52;75.04
13241;BME280;6687;47.790;7.322;2023-01-30T11:31:48;99830.94;;;3.02;76.29
13241;BME280;6687;47.790;7.322;2023-01-30T11:34:17;99818.81;;;3.35;76.19
13241;BME280;6687;47.790;7.322;2023-01-30T11:36:45;99825.28;;;3.27;75.61
13241;BME280;6687;47.790;7.322;2023-01-30T11:39:21;99826.94;;;3.07;75.91
13241;BME280;6687;47.790;7.322;2023-01-30T11:42:10;99809.41;;;2.96;75.36
13241;BME280;6687;47.790;7.322;2023-01-30T11:44:39;99796.47;;;3.52;75.54
13241;BME280;6687;47.790;7.322;2023-01-30T11:47:11;99800.81;;;3.53;74.40
13241;BME280;6687;47.790;7.322;2023-01-30T11:49:42;99797.56;;;3.57;74.45
13241;BME280;6687;47.790;7.322;2023-01-30T11:52:11;99775.78;;;3.67;74.68
13241;BME280;6687;47.790;7.322;2023-01-30T11:54:40;99782.03;;;3.54;74.14
13241;BME280;6687;47.790;7.322;2023-01-30T11:57:12;99787.97;;;3.72;74.12
13241;BME280;6687;47.790;7.322;2023-01-30T11:59:43;99787.53;;;3.83;74.35
13241;BME280;6687;47.790;7.322;2023-01-30T12:02:15;99774.06;;;3.67;73.87
13241;BME280;6687;47.790;7.322;2023-01-30T12:04:46;99765.06;;;3.96;73.80
13241;BME280;6687;47.790;7.322;2023-01-30T12:07:18;99767.56;;;4.16;73.85
13241;BME280;6687;47.790;7.322;2023-01-30T12:09:46;99764.78;;;4.11;74.11
13241;BME280;6687;47.790;7.322;2023-01-30T12:12:42;99755.94;;;4.26;73.60
13241;BME280;6687;47.790;7.322;2023-01-30T12:15:17;99754.78;;;3.75;73.20
13241;BME280;6687;47.790;7.322;2023-01-30T12:17:51;99741.78;;;3.71;73.39
13241;BME280;6687;47.790;7.322;2023-01-30T12:20:25;99740.16;;;4.15;73.96
13241;BME280;6687;47.790;7.322;2023-01-30T12:23:03;99752.44;;;4.24;74.52
13241;BME280;6687;47.790;7.322;2023-01-30T12:25:35;99744.75;;;4.45;73.52
13241;BME280;6687;47.790;7.322;2023-01-30T12:28:11;99734.88;;;4.33;73.37
13241;BME280;6687;47.790;7.322;2023-01-30T12:30:45;99742.47;;;4.30;73.74
13241;BME280;6687;47.790;7.322;2023-01-30T12:33:14;99741.06;;;4.61;73.78
13241;BME280;6687;47.790;7.322;2023-01-30T12:36:00;99727.94;;;4.53;73.88
13241;BME280;6687;47.790;7.322;2023-01-30T12:38:40;99724.97;;;4.65;73.61
13241;BME280;6687;47.790;7.322;2023-01-30T12:41:22;99731.28;;;4.73;73.75
13241;BME280;6687;47.790;7.322;2023-01-30T12:44:17;99730.94;;;4.64;73.06
13241;BME280;6687;47.790;7.322;2023-01-30T12:47:02;99728.63;;;4.71;72.58
13241;BME280;6687;47.790;7.322;2023-01-30T12:49:41;99729.28;;;4.88;73.27
13241;BME280;6687;47.790;7.322;2023-01-30T12:52:28;99734.94;;;5.02;73.82
13241;BME280;6687;47.790;7.322;2023-01-30T12:55:05;99743.13;;;4.92;73.76
13241;BME280;6687;47.790;7.322;2023-01-30T12:57:44;99715.81;;;4.94;73.03
13241;BME280;6687;47.790;7.322;2023-01-30T13:00:28;99727.72;;;4.92;73.98
13241;BME280;6687;47.790;7.322;2023-01-30T13:03:06;99713.50;;;5.02;73.07
13241;BME280;6687;47.790;7.322;2023-01-30T13:05:42;99704.19;;;5.05;72.44
13241;BME280;6687;47.790;7.322;2023-01-30T13:08:21;99702.56;;;5.31;73.06
13241;BME280;6687;47.790;7.322;2023-01-30T13:10:59;99717.22;;;5.34;72.66
13241;BME280;6687;47.790;7.322;2023-01-30T13:13:35;99687.38;;;5.37;72.36
13241;BME280;6687;47.790;7.322;2023-01-30T13:16:13;99691.66;;;5.38;72.49
13241;BME280;6687;47.790;7.322;2023-01-30T13:18:46;99680.78;;;5.20;71.10
13241;BME280;6687;47.790;7.322;2023-01-30T13:21:28;99685.78;;;5.17;72.00
13241;BME280;6687;47.790;7.322;2023-01-30T13:24:04;99689.97;;;5.39;72.84
13241;BME280;6687;47.790;7.322;2023-01-30T13:26:38;99680.13;;;5.51;71.54
13241;BME280;6687;47.790;7.322;2023-01-30T13:29:12;99675.28;;;5.61;72.18
13241;BME280;6687;47.790;7.322;2023-01-30T13:31:49;99674.25;;;5.30;72.24
13241;BME280;6687;47.790;7.322;2023-01-30T13:34:23;99677.09;;;5.37;71.67
13241;BME280;6687;47.790;7.322;2023-01-30T13:36:54;99683.16;;;5.40;71.34
13241;BME280;6687;47.790;7.322;2023-01-30T13:39:31;99691.69;;;5.64;72.01
13241;BME280;6687;47.790;7.322;2023-01-30T13:41:59;99685.09;;;5.72;71.16
13241;BME280;6687;47.790;7.322;2023-01-30T13:44:29;99671.50;;;5.76;71.05
13241;BME280;6687;47.790;7.322;2023-01-30T13:47:06;99687.66;;;5.72;70.56
13241;BME280;6687;47.790;7.322;2023-01-30T13:49:41;99669.06;;;5.54;70.53
13241;BME280;6687;47.790;7.322;2023-01-30T13:52:16;99682.31;;;5.92;70.72
13241;BME280;6687;47.790;7.322;2023-01-30T13:54:55;99680.06;;;5.75;70.40
13241;BME280;6687;47.790;7.322;2023-01-30T13:57:39;99696.88;;;5.91;69.92
13241;BME280;6687;47.790;7.322;2023-01-30T14:00:19;99684.19;;;5.96;70.31
13241;BME280;6687;47.790;7.322;2023-01-30T14:03:20;99703.78;;;6.20;70.14
13241;BME280;6687;47.790;7.322;2023-01-30T14:08:49;99710.97;;;6.03;70.13
13241;BME280;6687;47.790;7.322;2023-01-30T14:11:35;99706.91;;;6.09;69.96
13241;BME280;6687;47.790;7.322;2023-01-30T14:14:05;99709.97;;;5.97;69.18
13241;BME280;6687;47.790;7.322;2023-01-30T14:16:47;99710.66;;;6.19;69.71
13241;BME280;6687;47.790;7.322;2023-01-30T14:19:28;99711.00;;;6.04;69.72
13241;BME280;6687;47.790;7.322;2023-01-30T14:21:58;99701.22;;;5.94;69.46
13241;BME280;6687;47.790;7.322;2023-01-30T14:24:26;99709.03;;;6.23;69.04
13241;BME280;6687;47.790;7.322;2023-01-30T14:27:04;99715.63;;;6.14;69.39
13241;BME280;6687;47.790;7.322;2023-01-30T14:29:54;99725.34;;;5.96;69.36
13241;BME280;6687;47.790;7.322;2023-01-30T14:32:51;99733.34;;;5.80;69.44
13241;BME280;6687;47.790;7.322;2023-01-30T14:35:23;99723.69;;;5.98;70.45
13241;BME280;6687;47.790;7.322;2023-01-30T14:38:06;99734.84;;;5.98;70.19
13241;BME280;6687;47.790;7.322;2023-01-30T14:40:37;99723.88;;;6.04;69.34
13241;BME280;6687;47.790;7.322;2023-01-30T14:49:27;99754.19;;;6.13;69.44
13241;BME280;6687;47.790;7.322;2023-01-30T14:51:56;99758.22;;;6.32;68.58
13241;BME280;6687;47.790;7.322;2023-01-30T14:54:38;99766.25;;;5.90;70.01
13241;BME280;6687;47.790;7.322;2023-01-30T14:57:18;99763.75;;;6.17;69.18
13241;BME280;6687;47.790;7.322;2023-01-30T14:59:49;99767.00;;;6.11;68.89
13241;BME280;6687;47.790;7.322;2023-01-30T15:02:22;99763.59;;;6.12;69.30
13241;BME280;6687;47.790;7.322;2023-01-30T15:04:57;99772.81;;;6.06;69.58
13241;BME280;6687;47.790;7.322;2023-01-30T15:07:34;99775.53;;;6.10;69.55
13241;BME280;6687;47.790;7.322;2023-01-30T15:10:05;99785.72;;;6.07;69.52
13241;BME280;6687;47.790;7.322;2023-01-30T15:12:45;99794.16;;;6.03;70.05
13241;BME280;6687;47.790;7.322;2023-01-30T15:15:23;99782.31;;;6.08;70.02
13241;BME280;6687;47.790;7.322;2023-01-30T15:18:16;99788.13;;;6.03;69.64
13241;BME280;6687;47.790;7.322;2023-01-30T15:21:05;99796.53;;;5.97;70.63
13241;BME280;6687;47.790;7.322;2023-01-30T15:23:53;99803.81;;;6.09;70.37
13241;BME280;6687;47.790;7.322;2023-01-30T15:26:33;99817.06;;;6.21;69.92
13241;BME280;6687;47.790;7.322;2023-01-30T15:29:21;99812.78;;;6.22;69.91
13241;BME280;6687;47.790;7.322;2023-01-30T15:31:53;99810.78;;;6.13;69.73
13241;BME280;6687;47.790;7.322;2023-01-30T15:34:21;99810.53;;;6.31;69.83
13241;BME280;6687;47.790;7.322;2023-01-30T15:36:48;99809.63;;;6.30;69.55
13241;BME280;6687;47.790;7.322;2023-01-30T15:39:18;99811.00;;;6.19;70.02
13241;BME280;6687;47.790;7.322;2023-01-30T15:41:46;99819.16;;;6.33;69.61
13241;BME280;6687;47.790;7.322;2023-01-30T15:44:33;99819.16;;;6.33;69.28
13241;BME280;6687;47.790;7.322;2023-01-30T15:47:17;99836.34;;;6.34;69.53
13241;BME280;6687;47.790;7.322;2023-01-30T15:49:53;99841.22;;;6.25;69.89
13241;BME280;6687;47.790;7.322;2023-01-30T15:52:24;99835.00;;;6.20;69.41
13241;BME280;6687;47.790;7.322;2023-01-30T15:54:58;99834.41;;;6.27;70.00
13241;BME280;6687;47.790;7.322;2023-01-30T15:57:29;99834.69;;;6.36;69.62
13241;BME280;6687;47.790;7.322;2023-01-30T15:59:57;99829.03;;;6.21;69.72
13241;BME280;6687;47.790;7.322;2023-01-30T16:02:28;99823.59;;;6.11;70.25
13241;BME280;6687;47.790;7.322;2023-01-30T16:05:12;99836.06;;;6.25;70.09
13241;BME280;6687;47.790;7.322;2023-01-30T16:07:41;99849.00;;;6.28;69.35
13241;BME280;6687;47.790;7.322;2023-01-30T16:10:13;99861.25;;;6.09;70.00
13241;BME280;6687;47.790;7.322;2023-01-30T16:12:40;99870.50;;;6.04;69.64
13241;BME280;6687;47.790;7.322;2023-01-30T16:15:23;99865.16;;;6.24;69.40
13241;BME280;6687;47.790;7.322;2023-01-30T16:17:58;99876.19;;;6.20;69.71
13241;BME280;6687;47.790;7.322;2023-01-30T16:20:25;99874.81;;;6.29;69.06
13241;BME280;6687;47.790;7.322;2023-01-30T16:22:52;99882.84;;;6.14;69.22
13241;BME280;6687;47.790;7.322;2023-01-30T16:25:22;99897.91;;;6.28;69.06
13241;BME280;6687;47.790;7.322;2023-01-30T16:27:50;99891.91;;;6.27;68.63
13241;BME280;6687;47.790;7.322;2023-01-30T16:30:23;99897.91;;;6.28;69.15
13241;BME280;6687;47.790;7.322;2023-01-30T16:32:52;99895.84;;;6.17;69.23
13241;BME280;6687;47.790;7.322;2023-01-30T16:35:28;99903.84;;;6.25;68.70
13241;BME280;6687;47.790;7.322;2023-01-30T16:37:58;99904.81;;;6.29;68.71
13241;BME280;6687;47.790;7.322;2023-01-30T16:40:28;99903.06;;;6.28;68.70
13241;BME280;6687;47.790;7.322;2023-01-30T16:42:57;99906.66;;;6.33;68.89
13241;BME280;6687;47.790;7.322;2023-01-30T16:45:52;99915.84;;;6.25;68.85
13241;BME280;6687;47.790;7.322;2023-01-30T16:48:32;99925.94;;;6.20;68.90
13241;BME280;6687;47.790;7.322;2023-01-30T16:51:19;99916.31;;;6.14;68.92
13241;BME280;6687;47.790;7.322;2023-01-30T16:54:04;99920.72;;;6.18;68.51
13241;BME280;6687;47.790;7.322;2023-01-30T16:56:45;99917.09;;;6.12;68.83
13241;BME280;6687;47.790;7.322;2023-01-30T16:59:18;99927.06;;;6.27;68.62
13241;BME280;6687;47.790;7.322;2023-01-30T17:01:46;99921.56;;;5.93;69.38
13241;BME280;6687;47.790;7.322;2023-01-30T17:04:19;99939.47;;;6.14;69.14
13241;BME280;6687;47.790;7.322;2023-01-30T17:06:55;99929.78;;;6.07;68.77
13241;BME280;6687;47.790;7.322;2023-01-30T17:09:40;99928.47;;;6.18;68.91
13241;BME280;6687;47.790;7.322;2023-01-30T17:12:34;99939.19;;;6.07;68.92
13241;BME280;6687;47.790;7.322;2023-01-30T17:18:07;99935.38;;;6.20;68.98
13241;BME280;6687;47.790;7.322;2023-01-30T17:20:40;99931.88;;;6.17;68.78
13241;BME280;6687;47.790;7.322;2023-01-30T17:23:16;99926.44;;;6.10;69.09
13241;BME280;6687;47.790;7.322;2023-01-30T17:25:44;99926.81;;;5.96;69.53
13241;BME280;6687;47.790;7.322;2023-01-30T17:28:18;99944.28;;;5.83;69.29
13241;BME280;6687;47.790;7.322;2023-01-30T17:30:46;99952.28;;;5.90;69.85
13241;BME280;6687;47.790;7.322;2023-01-30T17:33:13;99960.22;;;5.95;70.04
13241;BME280;6687;47.790;7.322;2023-01-30T17:35:40;99963.13;;;5.82;69.67
13241;BME280;6687;47.790;7.322;2023-01-30T17:38:08;99965.03;;;6.10;69.40
13241;BME280;6687;47.790;7.322;2023-01-30T17:40:37;99969.84;;;6.01;69.31
13241;BME280;6687;47.790;7.322;2023-01-30T17:43:04;99967.22;;;5.76;70.10
13241;BME280;6687;47.790;7.322;2023-01-30T17:45:32;99972.41;;;5.78;70.55
13241;BME280;6687;47.790;7.322;2023-01-30T17:48:00;99968.63;;;5.46;70.47
13241;BME280;6687;47.790;7.322;2023-01-30T17:50:27;99969.25;;;5.17;71.04
13241;BME280;6687;47.790;7.322;2023-01-30T17:52:54;99978.22;;;5.50;71.69
13241;BME280;6687;47.790;7.322;2023-01-30T17:55:20;99973.44;;;5.59;71.85
13241;BME280;6687;47.790;7.322;2023-01-30T17:57:47;99986.50;;;5.88;70.73
13241;BME280;6687;47.790;7.322;2023-01-30T18:00:16;99995.72;;;5.83;71.14
13241;BME280;6687;47.790;7.322;2023-01-30T18:02:45;99999.56;;;5.49;71.53
13241;BME280;6687;47.790;7.322;2023-01-30T18:05:12;100005.09;;;5.58;71.23
13241;BME280;6687;47.790;7.322;2023-01-30T18:07:40;100015.13;;;5.52;71.64
13241;BME280;6687;47.790;7.322;2023-01-30T18:10:11;100017.78;;;5.32;72.23
13241;BME280;6687;47.790;7.322;2023-01-30T18:12:39;100017.63;;;5.73;72.14
13241;BME280;6687;47.790;7.322;2023-01-30T18:15:08;100021.56;;;5.86;71.64
13241;BME280;6687;47.790;7.322;2023-01-30T18:17:40;100027.41;;;5.59;72.58
13241;BME280;6687;47.790;7.322;2023-01-30T18:20:11;100023.66;;;5.51;72.34
13241;BME280;6687;47.790;7.322;2023-01-30T18:22:38;100022.72;;;5.49;72.20
13241;BME280;6687;47.790;7.322;2023-01-30T18:25:06;100023.47;;;5.46;72.53
13241;BME280;6687;47.790;7.322;2023-01-30T18:27:33;100032.28;;;5.53;72.80
13241;BME280;6687;47.790;7.322;2023-01-30T18:30:00;100035.53;;;5.47;72.49
13241;BME280;6687;47.790;7.322;2023-01-30T18:32:27;100037.22;;;5.26;72.79
13241;BME280;6687;47.790;7.322;2023-01-30T18:34:54;100036.59;;;5.10;72.93
13241;BME280;6687;47.790;7.322;2023-01-30T18:37:22;100041.50;;;5.25;73.19
13241;BME280;6687;47.790;7.322;2023-01-30T18:39:49;100020.34;;;5.53;73.07
13241;BME280;6687;47.790;7.322;2023-01-30T18:42:16;100023.69;;;5.30;72.84
13241;BME280;6687;47.790;7.322;2023-01-30T18:44:43;100020.97;;;5.48;73.65
13241;BME280;6687;47.790;7.322;2023-01-30T18:47:09;100022.28;;;5.38;73.59
13241;BME280;6687;47.790;7.322;2023-01-30T18:49:36;100022.66;;;5.47;73.32
13241;BME280;6687;47.790;7.322;2023-01-30T18:52:03;100026.56;;;5.37;73.13
13241;BME280;6687;47.790;7.322;2023-01-30T18:54:31;100031.97;;;5.02;73.62
13241;BME280;6687;47.790;7.322;2023-01-30T18:56:58;100026.09;;;5.25;74.46
13241;BME280;6687;47.790;7.322;2023-01-30T18:59:25;100041.03;;;5.35;74.11
13241;BME280;6687;47.790;7.322;2023-01-30T19:01:52;100034.34;;;5.18;74.15
13241;BME280;6687;47.790;7.322;2023-01-30T19:04:18;100034.03;;;5.10;74.19
13241;BME280;6687;47.790;7.322;2023-01-30T19:06:45;100037.34;;;5.29;74.91
13241;BME280;6687;47.790;7.322;2023-01-30T19:09:13;100038.09;;;5.26;74.19
13241;BME280;6687;47.790;7.322;2023-01-30T19:11:41;100042.44;;;5.27;74.43
13241;BME280;6687;47.790;7.322;2023-01-30T19:14:25;100043.88;;;5.00;74.52
13241;BME280;6687;47.790;7.322;2023-01-30T19:16:52;100047.03;;;5.15;74.64
13241;BME280;6687;47.790;7.322;2023-01-30T19:19:19;100048.00;;;5.17;75.10
13241;BME280;6687;47.790;7.322;2023-01-30T19:21:46;100044.88;;;5.24;74.49
13241;BME280;6687;47.790;7.322;2023-01-30T19:24:15;100049.50;;;5.12;74.64
13241;BME280;6687;47.790;7.322;2023-01-30T19:26:43;100046.09;;;5.13;74.71
13241;BME280;6687;47.790;7.322;2023-01-30T19:29:10;100051.50;;;5.19;74.81
13241;BME280;6687;47.790;7.322;2023-01-30T19:31:37;100061.41;;;5.10;74.79
13241;BME280;6687;47.790;7.322;2023-01-30T19:34:03;100065.28;;;5.00;74.81
13241;BME280;6687;47.790;7.322;2023-01-30T19:36:32;100056.28;;;5.10;74.95
13241;BME280;6687;47.790;7.322;2023-01-30T19:38:59;100060.06;;;4.98;75.26
13241;BME280;6687;47.790;7.322;2023-01-30T19:41:29;100054.94;;;4.98;75.26
13241;BME280;6687;47.790;7.322;2023-01-30T19:43:59;100058.88;;;4.90;75.36
13241;BME280;6687;47.790;7.322;2023-01-30T19:46:27;100056.31;;;4.90;74.87
13241;BME280;6687;47.790;7.322;2023-01-30T19:48:54;100064.00;;;4.90;74.99
13241;BME280;6687;47.790;7.322;2023-01-30T19:51:22;100070.03;;;4.91;75.19
13241;BME280;6687;47.790;7.322;2023-01-30T19:53:50;100068.59;;;4.97;74.94
13241;BME280;6687;47.790;7.322;2023-01-30T19:56:18;100074.38;;;4.53;75.52
13241;BME280;6687;47.790;7.322;2023-01-30T19:58:47;100075.78;;;4.85;75.70
13241;BME280;6687;47.790;7.322;2023-01-30T20:01:18;100072.25;;;4.83;75.19
13241;BME280;6687;47.790;7.322;2023-01-30T20:03:45;100067.28;;;5.07;74.45
13241;BME280;6687;47.790;7.322;2023-01-30T20:06:14;100081.72;;;5.04;74.16
13241;BME280;6687;47.790;7.322;2023-01-30T20:08:42;100088.41;;;4.81;74.90
13241;BME280;6687;47.790;7.322;2023-01-30T20:11:10;100083.94;;;5.17;73.54